createdAt,value
2023-03-18T00:00:14.576Z,84.65
2023-03-18T00:02:55.161Z,83.07
2023-03-18T00:05:26.740Z,83.43
2023-03-18T00:08:08.824Z,85.22
2023-03-18T00:10:49.220Z,82.80
2023-03-18T00:13:19.980Z,81.82
2023-03-18T00:16:01.166Z,83.57
2023-03-18T00:18:33.776Z,84.72
2023-03-18T00:21:03.226Z,84.35
2023-03-18T00:23:32.888Z,86.32
2023-03-18T00:28:59.289Z,84.25
2023-03-18T00:31:50.230Z,84.47
2023-03-18T00:34:25.386Z,83.80
2023-03-18T00:36:59.965Z,82.53
2023-03-18T00:39:30.238Z,90.68
2023-03-18T00:42:01.326Z,91.97
2023-03-18T00:44:38.581Z,83.15
2023-03-18T00:47:15.795Z,79.50
2023-03-18T00:52:34.925Z,79.72
2023-03-18T00:57:46.230Z,81.57
2023-03-18T01:00:28.026Z,74.88
2023-03-18T01:03:00.932Z,69.35
2023-03-18T01:05:33.333Z,71.78
2023-03-18T01:08:04.076Z,67.95
2023-03-18T01:10:35.477Z,68.28
2023-03-18T01:13:05.716Z,68.28
2023-03-18T01:15:46.218Z,68.18
2023-03-18T01:18:15.649Z,68.25
2023-03-18T01:23:29.024Z,68.15
2023-03-18T01:28:49.443Z,61.70
2023-03-18T01:31:34.988Z,60.20
2023-03-18T01:34:05.130Z,60.85
2023-03-18T01:36:40.520Z,59.03
2023-03-18T01:39:11.219Z,59.10
2023-03-18T01:41:41.333Z,58.78
2023-03-18T01:44:26.330Z,56.83
2023-03-18T01:49:46.603Z,55.15
2023-03-18T01:52:24.415Z,54.53
2023-03-18T01:55:15.217Z,55.30
2023-03-18T01:57:49.505Z,58.15
2023-03-18T02:00:52.769Z,58.88
2023-03-18T02:03:23.331Z,59.67
2023-03-18T02:05:52.580Z,57.13
2023-03-18T02:08:22.644Z,58.53
2023-03-18T02:10:52.810Z,56.75
2023-03-18T02:13:24.314Z,54.45
2023-03-18T02:16:02.577Z,56.33
2023-03-18T02:21:35.467Z,52.50
2023-03-18T02:24:50.003Z,53.63
2023-03-18T02:27:25.682Z,51.58
2023-03-18T02:30:04.020Z,50.63
2023-03-18T02:32:35.576Z,49.72
2023-03-18T02:35:13.549Z,52.03
2023-03-18T02:37:49.949Z,51.00
2023-03-18T02:43:39.446Z,48.92
2023-03-18T02:49:28.723Z,46.67
2023-03-18T02:52:01.054Z,47.35
2023-03-18T02:54:32.090Z,49.47
2023-03-18T02:57:15.741Z,46.28
2023-03-18T02:59:53.444Z,47.30
2023-03-18T03:05:12.684Z,49.17
2023-03-18T03:10:25.921Z,45.60
2023-03-18T03:12:54.962Z,45.63
2023-03-18T03:15:36.803Z,46.55
2023-03-18T03:18:16.651Z,46.47
2023-03-18T03:21:06.274Z,45.28
2023-03-18T03:23:35.216Z,45.22
2023-03-18T03:26:05.697Z,46.67
2023-03-18T03:28:35.746Z,45.00
2023-03-18T03:31:15.855Z,44.95
2023-03-18T03:36:40.495Z,43.35
2023-03-18T03:47:18.667Z,44.33
2023-03-18T03:49:47.353Z,43.58
2023-03-18T03:52:20.504Z,42.67
2023-03-18T03:54:55.923Z,44.20
2023-03-18T03:57:30.806Z,44.58
2023-03-18T04:00:12.674Z,44.70
2023-03-18T04:05:30.107Z,43.20
2023-03-18T04:08:20.493Z,41.90
2023-03-18T04:13:42.765Z,43.00
2023-03-18T04:18:56.245Z,42.35
2023-03-18T04:21:30.694Z,43.38
2023-03-18T04:24:03.473Z,44.28
2023-03-18T04:32:00.680Z,42.13
2023-03-18T04:37:11.723Z,42.77
2023-03-18T04:39:53.382Z,42.53
2023-03-18T04:45:13.327Z,43.20
2023-03-18T04:47:44.465Z,42.22
2023-03-18T04:50:14.575Z,41.78
2023-03-18T04:52:44.663Z,43.15
2023-03-18T04:55:16.219Z,44.40
2023-03-18T04:57:45.486Z,41.63
2023-03-18T05:00:18.103Z,41.72
2023-03-18T05:05:15.318Z,44.28
2023-03-18T05:07:47.648Z,43.55
2023-03-18T05:10:30.351Z,42.03
2023-03-18T05:15:55.345Z,40.58
2023-03-18T05:18:27.005Z,39.17
2023-03-18T05:20:56.084Z,43.00
2023-03-18T05:26:08.983Z,40.30
2023-03-18T05:28:37.745Z,41.33
2023-03-18T05:31:07.086Z,40.35
2023-03-18T05:33:35.735Z,39.85
2023-03-18T05:36:04.514Z,41.13
2023-03-18T05:38:33.247Z,41.67
2023-03-18T05:41:03.063Z,40.38
2023-03-18T05:46:20.537Z,41.43
2023-03-18T05:48:58.453Z,39.60
2023-03-18T05:51:32.990Z,38.92
2023-03-18T05:54:12.838Z,40.25
2023-03-18T05:56:56.090Z,39.35
2023-03-18T05:59:36.650Z,39.28
2023-03-18T06:02:08.591Z,39.20
2023-03-18T06:04:46.418Z,39.53
2023-03-18T06:07:22.044Z,39.10
2023-03-18T06:09:54.881Z,44.85
2023-03-18T06:12:41.134Z,40.33
2023-03-18T06:15:42.136Z,37.63
2023-03-18T06:18:11.015Z,38.78
2023-03-18T06:20:39.749Z,39.67
2023-03-18T06:23:08.625Z,35.33
2023-03-18T06:25:37.446Z,36.45
2023-03-18T06:28:06.079Z,36.78
2023-03-18T06:30:35.307Z,37.50
2023-03-18T06:33:18.150Z,37.88
2023-03-18T06:35:50.519Z,36.33
2023-03-18T06:38:37.571Z,37.42
2023-03-18T06:41:12.338Z,36.00
2023-03-18T06:43:53.083Z,35.42
2023-03-18T06:46:24.142Z,35.15
2023-03-18T06:48:53.143Z,35.15
2023-03-18T06:51:21.779Z,34.25
2023-03-18T06:54:00.702Z,34.70
2023-03-18T06:56:46.876Z,34.70
2023-03-18T06:59:17.110Z,34.00
2023-03-18T07:10:18.985Z,34.03
2023-03-18T07:21:09.234Z,36.78
2023-03-18T07:23:39.959Z,33.25
2023-03-18T07:26:09.887Z,32.53
2023-03-18T07:28:38.428Z,32.88
2023-03-18T07:31:07.369Z,33.20
2023-03-18T07:33:36.007Z,33.40
2023-03-18T07:36:05.366Z,32.65
2023-03-18T08:03:18.972Z,32.30
2023-03-18T08:08:58.293Z,32.50
2023-03-18T08:11:47.057Z,33.05
2023-03-18T08:14:15.648Z,32.75
2023-03-18T08:16:44.273Z,31.55
2023-03-18T08:19:13.371Z,32.65
2023-03-18T08:21:42.028Z,30.58
2023-03-18T08:24:10.782Z,31.05
2023-03-18T08:26:39.362Z,30.95
2023-03-18T08:37:26.673Z,30.92
2023-03-18T08:39:57.803Z,32.10
2023-03-18T08:48:05.190Z,30.35
2023-03-18T08:53:32.278Z,30.65
2023-03-18T08:56:08.814Z,29.52
2023-03-18T09:01:37.381Z,31.90
2023-03-18T09:07:03.154Z,32.35
2023-03-18T09:09:44.046Z,31.58
2023-03-18T09:20:37.403Z,32.47
2023-03-18T09:23:19.467Z,32.33
2023-03-18T09:26:01.339Z,35.13
2023-03-18T09:28:30.684Z,32.13
2023-03-18T09:30:59.835Z,32.47
2023-03-18T09:33:28.491Z,32.85
2023-03-18T09:35:57.240Z,32.15
2023-03-18T09:41:47.109Z,31.85
2023-03-18T09:44:29.296Z,31.15
2023-03-18T09:47:16.260Z,31.60
2023-03-18T09:50:01.442Z,33.00
2023-03-18T09:56:00.045Z,32.33
2023-03-18T09:58:41.324Z,32.33
2023-03-18T10:01:14.166Z,31.92
2023-03-18T10:03:51.982Z,30.98
2023-03-18T10:06:23.161Z,32.97
2023-03-18T10:09:03.755Z,33.13
2023-03-18T10:11:35.607Z,32.10
2023-03-18T10:14:24.277Z,31.08
2023-03-18T10:17:11.724Z,32.00
2023-03-18T10:19:48.772Z,31.90
2023-03-18T10:22:44.935Z,31.05
2023-03-18T10:25:25.478Z,32.00
2023-03-18T10:28:07.817Z,33.80
2023-03-18T10:34:28.290Z,38.25
2023-03-18T10:37:34.024Z,41.00
2023-03-18T10:40:03.750Z,38.78
2023-03-18T10:42:36.594Z,37.95
2023-03-18T10:48:18.881Z,38.13
2023-03-18T10:51:08.623Z,37.53
2023-03-18T10:54:11.547Z,37.92
2023-03-18T10:56:40.926Z,38.08
2023-03-18T10:59:19.448Z,34.63
2023-03-18T11:01:52.851Z,36.28
2023-03-18T11:04:24.671Z,35.92
2023-03-18T11:07:04.205Z,38.53
2023-03-18T11:09:37.337Z,36.55
2023-03-18T11:12:16.742Z,35.95
2023-03-18T11:14:56.516Z,36.33
2023-03-18T11:20:46.506Z,37.55
2023-03-18T11:24:01.571Z,36.67
2023-03-18T11:32:15.045Z,36.10
2023-03-18T11:35:02.293Z,36.60
2023-03-18T11:37:47.686Z,34.05
2023-03-18T11:43:26.472Z,35.13
2023-03-18T11:48:50.865Z,38.80
2023-03-18T11:51:45.138Z,36.45
2023-03-18T11:54:42.212Z,37.58
2023-03-18T11:57:20.626Z,38.03
2023-03-18T12:00:15.637Z,39.08
2023-03-18T12:05:45.907Z,38.78
2023-03-18T12:08:34.824Z,39.40
2023-03-18T12:11:12.398Z,38.90
2023-03-18T12:14:01.747Z,38.78
2023-03-18T12:16:50.989Z,40.22
2023-03-18T12:19:57.821Z,41.10
2023-03-18T12:25:49.196Z,41.55
2023-03-18T12:28:38.538Z,42.20
2023-03-18T12:31:50.376Z,43.50
2023-03-18T12:34:51.525Z,43.72
2023-03-18T12:38:02.101Z,44.58
2023-03-18T12:40:57.664Z,44.17
2023-03-18T12:43:40.270Z,45.70
2023-03-18T12:46:46.633Z,45.00
2023-03-18T12:52:48.214Z,47.50
2023-03-18T12:55:27.857Z,45.80
2023-03-18T12:58:04.805Z,47.88
2023-03-18T13:00:40.911Z,45.67
2023-03-18T13:03:30.541Z,45.78
2023-03-18T13:06:07.166Z,43.80
2023-03-18T13:09:16.401Z,44.97
2023-03-18T13:12:09.121Z,44.97
2023-03-18T13:17:47.884Z,72.70
2023-03-18T13:20:36.368Z,47.28
2023-03-18T13:29:48.117Z,45.42
2023-03-18T13:32:58.618Z,47.85
2023-03-18T13:36:21.402Z,48.75
2023-03-18T13:39:35.804Z,49.07
2023-03-18T13:45:13.971Z,47.88
2023-03-18T13:47:48.393Z,47.35
2023-03-18T13:50:30.077Z,47.03
2023-03-18T13:53:11.751Z,49.53
2023-03-18T13:55:50.381Z,48.90
2023-03-18T13:58:41.941Z,49.88
2023-03-18T14:01:34.359Z,46.83
2023-03-18T14:04:34.025Z,48.63
2023-03-18T14:15:57.697Z,48.83
2023-03-18T14:18:29.542Z,49.80
2023-03-18T14:21:02.763Z,45.85
2023-03-18T14:26:45.302Z,50.45
2023-03-18T14:29:16.827Z,49.42
2023-03-18T14:32:00.140Z,49.38
2023-03-18T14:45:55.455Z,51.42
2023-03-18T14:51:32.960Z,49.25
2023-03-18T14:54:13.474Z,48.63
2023-03-18T15:16:34.303Z,47.85
2023-03-18T15:21:52.786Z,48.33
2023-03-18T15:24:32.954Z,47.88
2023-03-18T15:29:54.093Z,47.95
2023-03-18T15:32:27.367Z,47.30
2023-03-18T15:34:59.809Z,48.60
2023-03-18T15:40:38.335Z,47.63
2023-03-18T15:43:26.209Z,48.00
2023-03-18T15:46:09.244Z,48.22
2023-03-18T15:57:35.580Z,49.92
2023-03-18T16:05:56.439Z,46.65
2023-03-18T16:08:53.075Z,45.08
2023-03-18T16:11:30.839Z,46.22
2023-03-18T16:14:17.197Z,46.15
2023-03-18T16:27:52.349Z,45.70
2023-03-18T16:30:24.324Z,43.70
2023-03-18T16:32:53.580Z,46.58
2023-03-18T16:35:26.286Z,44.97
2023-03-18T16:40:25.447Z,46.50
2023-03-18T16:42:54.558Z,45.85
2023-03-18T16:45:30.697Z,46.33
2023-03-18T16:48:05.757Z,47.33
2023-03-18T16:50:38.348Z,45.97
2023-03-18T16:53:28.057Z,47.63
2023-03-18T16:56:15.973Z,45.67
2023-03-18T16:58:58.198Z,47.97
2023-03-18T17:04:26.961Z,45.42
2023-03-18T17:06:56.872Z,45.85
2023-03-18T17:09:27.142Z,46.50
2023-03-18T17:12:00.090Z,48.60
2023-03-18T17:14:48.281Z,47.88
2023-03-18T17:23:23.401Z,47.05
2023-03-18T17:28:53.412Z,47.90
2023-03-18T17:37:12.247Z,47.50
2023-03-18T17:39:46.650Z,48.13
2023-03-18T17:45:34.884Z,48.22
2023-03-18T18:02:30.678Z,54.35
2023-03-18T18:04:59.282Z,53.83
2023-03-18T18:07:27.764Z,53.35
2023-03-18T18:09:57.887Z,52.05
2023-03-18T18:12:26.551Z,49.75
2023-03-18T18:14:55.061Z,51.10
2023-03-18T18:17:23.624Z,48.78
2023-03-18T18:19:52.255Z,49.53
2023-03-18T18:22:24.873Z,48.58
2023-03-18T18:24:55.198Z,46.55
2023-03-18T18:27:44.685Z,46.97
2023-03-18T18:30:23.128Z,52.28
2023-03-18T18:36:10.702Z,59.95
2023-03-18T18:38:41.148Z,57.92
2023-03-18T18:43:53.577Z,53.83
2023-03-18T18:46:22.767Z,54.45
2023-03-18T18:48:52.710Z,51.55
2023-03-18T18:51:23.995Z,49.75
2023-03-18T18:53:55.031Z,50.70
2023-03-18T18:56:35.136Z,49.33
2023-03-18T18:59:07.862Z,50.47
2023-03-18T19:04:04.770Z,46.17
2023-03-18T19:06:34.984Z,47.97
2023-03-18T19:09:12.277Z,47.47
2023-03-18T19:11:47.585Z,47.40
2023-03-18T19:17:31.512Z,45.70
2023-03-18T19:20:34.593Z,46.10
2023-03-18T19:23:07.036Z,46.30
2023-03-18T19:29:03.454Z,46.38
2023-03-18T19:34:26.027Z,44.50
2023-03-18T19:45:27.055Z,42.55
2023-03-18T19:47:55.653Z,43.70
2023-03-18T19:50:24.362Z,42.65
2023-03-18T19:52:54.106Z,42.95
2023-03-18T19:55:24.297Z,44.38
2023-03-18T19:57:54.494Z,42.95
2023-03-18T20:03:29.095Z,45.47
2023-03-18T20:06:20.159Z,44.33
2023-03-18T20:08:55.879Z,44.78
2023-03-18T20:11:34.210Z,45.65
2023-03-18T20:14:08.893Z,45.58
2023-03-18T20:22:15.897Z,47.30
2023-03-18T20:30:25.283Z,43.70
2023-03-18T20:38:48.183Z,46.53
2023-03-18T20:41:23.493Z,48.10
2023-03-18T20:46:35.894Z,44.95
2023-03-18T20:51:57.850Z,46.90
2023-03-18T20:54:33.194Z,44.60
2023-03-18T20:59:44.826Z,46.92
2023-03-18T21:02:34.207Z,48.25
2023-03-18T21:05:04.078Z,44.92
2023-03-18T21:07:32.737Z,46.88
2023-03-18T21:10:01.766Z,46.80
2023-03-18T21:12:33.157Z,46.90
2023-03-18T21:15:16.141Z,47.90
2023-03-18T21:17:50.461Z,48.28
2023-03-18T21:23:38.808Z,48.05
2023-03-18T21:26:20.522Z,46.97
2023-03-18T21:28:51.733Z,49.38
2023-03-18T21:39:54.076Z,46.25
2023-03-18T21:50:51.690Z,48.97
2023-03-18T21:53:30.257Z,48.45
2023-03-18T22:07:11.527Z,48.45
2023-03-18T22:09:49.867Z,48.28
2023-03-18T22:12:25.318Z,49.47
2023-03-18T22:14:55.254Z,49.25
2023-03-18T22:17:26.784Z,48.67
2023-03-18T22:19:56.885Z,50.03
2023-03-18T22:22:30.540Z,51.58
2023-03-18T22:24:59.209Z,51.35
2023-03-18T22:33:14.460Z,50.58
2023-03-18T22:38:44.599Z,49.90
2023-03-18T22:41:24.235Z,50.63
2023-03-18T22:43:55.636Z,52.35
2023-03-18T22:46:27.131Z,52.53
2023-03-18T22:48:57.889Z,52.22
2023-03-18T22:51:48.996Z,53.40
2023-03-18T22:54:26.055Z,55.05
2023-03-18T22:59:41.914Z,55.45
2023-03-18T23:05:04.992Z,52.60
2023-03-18T23:10:27.269Z,53.33
2023-03-18T23:12:58.549Z,55.83
2023-03-18T23:15:27.160Z,56.67
2023-03-18T23:17:55.793Z,53.15
2023-03-18T23:20:24.463Z,53.92
2023-03-18T23:28:20.175Z,55.92
2023-03-18T23:30:51.369Z,57.50
2023-03-18T23:33:20.778Z,57.95
2023-03-18T23:35:49.783Z,58.75
2023-03-18T23:41:16.223Z,57.60
2023-03-18T23:46:33.184Z,58.78
2023-03-18T23:54:33.053Z,70.47
